Time;durP1;ratioP1;P1;durP2;ratioP2;P2;SDS_P1;SDS_P2;PMS_P1;PMS_P2;Temp;Humidity;BMP_temperature;BMP_pressure;BME280_temperature;BME280_humidity;BME280_pressure;Samples;Min_cycle;Max_cycle;Signal;HPM_P1;HPM_P2
2022/11/27 00:01:37;;;;;;;59.90;21.47;;;;;;;5.69;100.00;102331.25;7395629;19;20465;-60
2022/11/27 00:04:08;;;;;;;54.73;21.63;;;;;;;5.73;100.00;102328.22;7398352;19;20409;-60
2022/11/27 00:06:42;;;;;;;46.63;20.27;;;;;;;5.65;100.00;102334.34;7393363;19;20447;-59
2022/11/27 00:09:14;;;;;;;51.63;20.00;;;;;;;5.63;100.00;102333.28;7394450;19;20935;-59
2022/11/27 00:11:43;;;;;;;50.97;21.57;;;;;;;5.63;100.00;102331.63;7387081;19;20446;-60
2022/11/27 00:14:15;;;;;;;49.10;20.50;;;;;;;5.56;100.00;102333.50;7391364;19;20762;-60
2022/11/27 00:16:44;;;;;;;49.10;19.83;;;;;;;5.71;100.00;102341.63;7388990;19;20782;-59
2022/11/27 00:19:14;;;;;;;65.17;22.77;;;;;;;5.75;100.00;102336.91;7390932;19;20396;-57
2022/11/27 00:21:46;;;;;;;62.97;21.90;;;;;;;5.76;100.00;102341.28;7388870;19;20439;-57
2022/11/27 00:24:15;;;;;;;50.00;18.90;;;;;;;5.70;100.00;102345.88;7391244;19;20370;-60
2022/11/27 00:26:45;;;;;;;55.63;20.33;;;;;;;5.75;100.00;102341.16;7388280;19;20774;-57
2022/11/27 00:29:15;;;;;;;59.93;21.20;;;;;;;5.61;100.00;102345.06;7389466;19;20397;-58
2022/11/27 00:31:44;;;;;;;67.33;19.80;;;;;;;5.50;100.00;102357.81;7387786;19;20450;-56
2022/11/27 00:34:14;;;;;;;64.47;21.77;;;;;;;5.33;100.00;102363.13;7391924;19;20412;-58
2022/11/27 00:36:46;;;;;;;49.00;19.00;;;;;;;5.34;100.00;102368.38;7379242;19;20438;-58
2022/11/27 00:39:16;;;;;;;54.00;19.40;;;;;;;5.26;100.00;102375.38;7392065;19;20401;-58
2022/11/27 00:41:46;;;;;;;62.13;21.77;;;;;;;5.14;100.00;102380.28;7388866;19;20437;-57
2022/11/27 00:44:15;;;;;;;61.67;20.07;;;;;;;5.11;100.00;102384.22;7390215;19;20379;-58
2022/11/27 00:46:45;;;;;;;55.70;20.13;;;;;;;5.09;100.00;102390.88;7389029;19;20438;-58
2022/11/27 00:49:16;;;;;;;48.87;19.37;;;;;;;5.09;100.00;102393.44;7390591;19;20412;-53
2022/11/27 00:51:48;;;;;;;59.53;18.83;;;;;;;5.05;100.00;102378.56;7389748;19;21319;-56
2022/11/27 00:54:17;;;;;;;62.17;21.37;;;;;;;4.96;100.00;102383.72;7392308;19;20961;-59
2022/11/27 00:56:51;;;;;;;60.17;20.67;;;;;;;4.90;100.00;102381.53;7387074;19;20409;-59
2022/11/27 00:59:20;;;;;;;47.63;18.00;;;;;;;4.93;100.00;102386.91;7390217;19;20419;-58
2022/11/27 01:01:50;;;;;;;50.37;19.50;;;;;;;4.92;100.00;102376.56;7387941;19;20448;-54
2022/11/27 01:04:19;;;;;;;54.10;17.57;;;;;;;4.96;100.00;102376.97;7391335;19;20416;-59
2022/11/27 01:06:52;;;;;;;42.60;16.93;;;;;;;4.93;100.00;102358.78;7388788;19;20434;-53
2022/11/27 01:09:25;;;;;;;57.13;18.63;;;;;;;5.00;100.00;102360.25;7390445;19;20389;-55
2022/11/27 01:11:54;;;;;;;45.83;17.90;;;;;;;5.06;100.00;102349.66;7385723;19;20441;-56
2022/11/27 01:14:24;;;;;;;49.53;17.07;;;;;;;5.11;100.00;102338.16;7392302;19;20417;-56
2022/11/27 01:16:53;;;;;;;51.00;18.67;;;;;;;5.16;100.00;102342.03;7389258;19;20411;-55
2022/11/27 01:19:22;;;;;;;59.37;18.40;;;;;;;5.27;100.00;102336.22;7391599;19;20381;-58
2022/11/27 01:21:54;;;;;;;57.33;18.20;;;;;;;5.33;100.00;102328.16;7389217;19;20455;-55
2022/11/27 01:24:26;;;;;;;50.47;17.70;;;;;;;5.32;100.00;102321.25;7391976;19;20371;-53
2022/11/27 01:26:55;;;;;;;48.43;16.87;;;;;;;5.10;100.00;102315.91;7391205;19;20430;-59
2022/11/27 01:29:25;;;;;;;62.67;16.77;;;;;;;4.96;100.00;102309.53;7391765;19;21036;-57
2022/11/27 01:31:54;;;;;;;61.53;18.87;;;;;;;4.90;100.00;102314.13;7386623;19;20461;-58
2022/11/27 01:34:24;;;;;;;55.73;17.17;;;;;;;4.82;100.00;102313.44;7391794;19;20420;-58
2022/11/27 01:36:56;;;;;;;46.20;17.20;;;;;;;4.75;100.00;102317.09;7388925;19;20410;-56
2022/11/27 01:39:25;;;;;;;45.23;17.03;;;;;;;4.71;100.00;102315.91;7391819;19;20384;-59
2022/11/27 01:41:55;;;;;;;43.73;16.97;;;;;;;4.75;100.00;102311.97;7387928;19;20443;-58
2022/11/27 01:44:49;;;;;;;41.43;15.57;;;;;;;4.73;100.00;102313.50;7392015;19;20393;-57
2022/11/27 01:47:38;;;;;;;42.17;16.07;;;;;;;4.81;100.00;102312.53;7389273;19;20420;-59
2022/11/27 01:50:11;;;;;;;42.20;15.87;;;;;;;4.82;100.00;102305.78;7390701;19;20435;-59
2022/11/27 01:52:47;;;;;;;49.93;15.20;;;;;;;4.78;100.00;102301.13;7387537;19;20420;-55
2022/11/27 01:55:20;;;;;;;42.47;16.50;;;;;;;4.72;100.00;102292.13;7391173;19;20418;-55
2022/11/27 01:57:51;;;;;;;37.83;15.13;;;;;;;4.70;100.00;102283.44;7388601;19;20412;-56
2022/11/27 02:00:21;;;;;;;42.00;16.03;;;;;;;4.66;100.00;102281.34;7391374;19;20411;-57
2022/11/27 02:02:51;;;;;;;38.97;14.03;;;;;;;4.64;100.00;102282.88;7385850;19;20437;-55
2022/11/27 02:05:24;;;;;;;31.33;15.17;;;;;;;4.70;100.00;102283.44;7390781;19;20410;-57
2022/11/27 02:07:56;;;;;;;38.00;15.47;;;;;;;4.77;100.00;102284.88;7388317;19;20952;-58
2022/11/27 02:10:33;;;;;;;31.23;14.40;;;;;;;4.81;100.00;102280.94;7390495;19;20393;-57
2022/11/27 02:13:06;;;;;;;33.10;14.57;;;;;;;4.84;100.00;102282.13;7386332;19;20443;-56
2022/11/27 02:15:42;;;;;;;42.63;13.87;;;;;;;4.64;100.00;102281.97;7390845;19;20397;-56
2022/11/27 02:18:15;;;;;;;44.37;16.27;;;;;;;4.79;100.00;102285.03;7391108;19;20447;-54
2022/11/27 02:20:51;;;;;;;36.70;14.93;;;;;;;4.78;100.00;102276.47;7395503;19;20365;-57
2022/11/27 02:23:52;;;;;;;41.43;15.60;;;;;;;4.72;100.00;102284.47;7387563;19;20782;-59
2022/11/27 02:26:59;;;;;;;40.67;14.40;;;;;;;4.70;100.00;102287.66;7388788;19;20408;-58
2022/11/27 02:29:34;;;;;;;32.77;13.93;;;;;;;4.73;100.00;102278.59;7389963;19;20421;-59
2022/11/27 02:32:09;;;;;;;35.73;14.23;;;;;;;4.79;100.00;102277.34;7387494;19;20807;-59
2022/11/27 02:34:44;;;;;;;33.90;13.23;;;;;;;4.68;100.00;102282.38;7390648;19;20395;-58
2022/11/27 02:37:17;;;;;;;34.80;12.40;;;;;;;4.57;100.00;102290.78;7386267;19;20427;-59
2022/11/27 02:39:52;;;;;;;32.80;13.80;;;;;;;4.53;100.00;102288.69;7390345;19;20392;-58
2022/11/27 02:42:22;;;;;;;32.37;12.50;;;;;;;4.58;100.00;102297.66;7386303;19;20654;-58
2022/11/27 02:45:00;;;;;;;31.93;13.33;;;;;;;4.62;100.00;102299.75;7394309;19;20393;-58
2022/11/27 02:47:30;;;;;;;40.67;13.73;;;;;;;4.50;100.00;102296.09;7395483;19;20432;-54
2022/11/27 02:50:01;;;;;;;28.20;12.00;;;;;;;4.44;100.00;102294.75;7397528;19;20410;-55
2022/11/27 02:52:31;;;;;;;33.60;12.80;;;;;;;4.42;100.00;102298.81;7394119;19;20424;-58
2022/11/27 02:55:02;;;;;;;36.43;12.43;;;;;;;4.40;100.00;102291.75;7397016;19;20731;-59
2022/11/27 02:57:32;;;;;;;34.07;12.40;;;;;;;4.55;100.00;102292.25;7394985;19;20775;-58
2022/11/27 03:00:06;;;;;;;34.87;12.80;;;;;;;4.54;100.00;102287.91;7396943;19;20397;-59
2022/11/27 03:02:38;;;;;;;31.63;12.80;;;;;;;4.32;100.00;102299.63;7391992;19;20442;-58
2022/11/27 03:05:10;;;;;;;29.77;12.50;;;;;;;4.21;100.00;102302.88;7396397;19;20467;-55
2022/11/27 03:07:42;;;;;;;36.33;13.10;;;;;;;4.21;100.00;102299.41;7390647;19;20445;-56
2022/11/27 03:10:18;;;;;;;35.33;13.50;;;;;;;4.23;100.00;102296.25;7396893;19;20953;-58
2022/11/27 03:12:47;;;;;;;35.10;12.27;;;;;;;4.16;100.00;102297.31;7391910;19;20517;-54
2022/11/27 03:15:19;;;;;;;32.87;13.63;;;;;;;4.19;100.00;102289.97;7396582;19;20396;-56
2022/11/27 03:17:54;;;;;;;32.30;12.30;;;;;;;4.30;100.00;102290.94;7394279;19;20404;-56
2022/11/27 03:20:25;;;;;;;39.77;13.33;;;;;;;4.21;100.00;102287.56;7396549;19;20915;-58
2022/11/27 03:22:56;;;;;;;33.70;11.90;;;;;;;4.09;100.00;102284.75;7391162;19;20943;-57
2022/11/27 03:25:26;;;;;;;42.97;12.97;;;;;;;4.11;100.00;102278.09;7396525;19;20400;-53
2022/11/27 03:27:58;;;;;;;49.90;18.50;;;;;;;4.22;100.00;102283.31;7393899;19;20435;-56
2022/11/27 03:30:30;;;;;;;44.23;13.23;;;;;;;4.25;100.00;102283.63;7396024;19;20414;-54
2022/11/27 03:33:00;;;;;;;47.47;14.97;;;;;;;4.10;100.00;102281.41;7391228;19;20422;-54
2022/11/27 03:35:31;;;;;;;28.30;11.57;;;;;;;3.95;100.00;102287.69;7398238;19;20938;-56
2022/11/27 03:38:00;;;;;;;44.00;14.37;;;;;;;3.93;100.00;102282.41;7392397;19;20419;-56
2022/11/27 03:40:34;;;;;;;27.50;12.23;;;;;;;3.90;100.00;102277.03;7396244;19;20407;-55
2022/11/27 03:43:07;;;;;;;31.10;11.50;;;;;;;3.90;100.00;102277.91;7391240;19;20453;-54
2022/11/27 03:45:43;;;;;;;38.93;12.53;;;;;;;4.00;100.00;102268.56;7396220;19;20403;-54
2022/11/27 03:48:21;;;;;;;32.80;13.37;;;;;;;3.94;100.00;102278.22;7393700;19;20419;-58
2022/11/27 03:51:01;;;;;;;31.13;13.43;;;;;;;3.84;100.00;102256.91;7393664;19;20392;-56
2022/11/27 03:53:37;;;;;;;25.37;11.20;;;;;;;3.76;100.00;102262.97;7393296;19;20939;-58
2022/11/27 03:56:11;;;;;;;29.93;12.60;;;;;;;3.73;100.00;102253.38;7392484;19;20402;-58
2022/11/27 03:58:42;;;;;;;32.87;12.13;;;;;;;3.70;100.00;102262.41;7395552;19;20379;-56
2022/11/27 04:01:16;;;;;;;30.27;11.40;;;;;;;3.71;100.00;102259.09;7392116;19;20419;-58
2022/11/27 04:03:46;;;;;;;30.17;10.83;;;;;;;3.72;100.00;102248.13;7394827;19;20412;-52
2022/11/27 04:06:15;;;;;;;23.40;11.43;;;;;;;3.69;100.00;102255.50;7391984;19;20407;-59
2022/11/27 04:08:45;;;;;;;39.80;16.53;;;;;;;3.63;100.00;102245.59;7395276;19;20399;-57
2022/11/27 04:11:14;;;;;;;73.00;31.23;;;;;;;3.66;100.00;102240.78;7391586;19;20407;-56
2022/11/27 04:13:44;;;;;;;33.80;14.37;;;;;;;3.67;100.00;102241.66;7394924;19;20415;-56
2022/11/27 04:16:16;;;;;;;35.70;12.23;;;;;;;3.54;100.00;102232.88;7392297;19;20411;-55
2022/11/27 04:18:46;;;;;;;32.10;13.20;;;;;;;3.57;100.00;102224.59;7395170;19;20391;-53
2022/11/27 04:21:16;;;;;;;31.37;12.80;;;;;;;3.53;100.00;102223.41;7391221;19;21034;-54
2022/11/27 04:23:46;;;;;;;36.70;14.60;;;;;;;3.53;100.00;102227.63;7394565;19;20407;-56
2022/11/27 04:26:16;;;;;;;31.53;12.40;;;;;;;3.40;100.00;102235.78;7393716;19;20415;-60
2022/11/27 04:28:45;;;;;;;32.80;13.13;;;;;;;3.34;100.00;102236.09;7394527;19;20391;-57
2022/11/27 04:31:17;;;;;;;37.07;13.40;;;;;;;3.38;100.00;102238.19;7390830;19;20395;-58
2022/11/27 04:33:47;;;;;;;32.07;12.63;;;;;;;3.48;100.00;102235.75;7398693;19;20396;-56
2022/11/27 04:36:16;;;;;;;35.03;12.03;;;;;;;3.53;100.00;102225.97;7386043;19;20407;-58
2022/11/27 04:38:45;;;;;;;29.67;13.20;;;;;;;3.46;100.00;102221.97;7393892;19;20396;-57
2022/11/27 04:41:15;;;;;;;30.17;12.80;;;;;;;3.35;100.00;102226.03;7390952;19;20874;-54
2022/11/27 04:43:44;;;;;;;30.93;13.10;;;;;;;3.32;100.00;102230.84;7393894;19;20915;-54
2022/11/27 04:46:16;;;;;;;32.43;13.23;;;;;;;3.36;100.00;102230.41;7391610;19;20411;-51
2022/11/27 04:48:46;;;;;;;35.17;14.43;;;;;;;3.41;100.00;102220.63;7393710;19;20459;-57
2022/11/27 04:51:15;;;;;;;35.83;14.20;;;;;;;3.38;100.00;102216.13;7390573;19;20411;-58
2022/11/27 04:53:44;;;;;;;39.03;15.50;;;;;;;3.27;100.00;102216.75;7393827;19;20414;-59
2022/11/27 04:56:14;;;;;;;40.20;17.13;;;;;;;3.18;100.00;102214.22;7390907;19;20399;-61
2022/11/27 04:58:43;;;;;;;53.33;19.03;;;;;;;3.10;100.00;102205.88;7393527;19;20383;-53
2022/11/27 05:01:13;;;;;;;58.70;17.03;;;;;;;3.08;100.00;102192.03;7392299;19;20391;-57
2022/11/27 05:03:45;;;;;;;60.70;19.13;;;;;;;2.98;100.00;102186.84;7392505;19;20391;-58
2022/11/27 05:06:14;;;;;;;71.20;20.20;;;;;;;3.00;100.00;102182.78;7386090;19;20411;-57
2022/11/27 05:08:44;;;;;;;53.43;19.40;;;;;;;2.94;100.00;102179.66;7392088;19;20746;-59
2022/11/27 05:11:15;;;;;;;46.00;18.33;;;;;;;2.79;100.00;102163.78;7390051;19;20420;-60
2022/11/27 05:13:45;;;;;;;47.37;19.23;;;;;;;2.82;100.00;102157.31;7392888;19;20388;-59
2022/11/27 05:16:15;;;;;;;46.77;20.00;;;;;;;2.89;100.00;102153.72;7390399;19;20425;-59
2022/11/27 05:18:47;;;;;;;64.80;20.10;;;;;;;2.96;100.00;102153.53;7392707;19;20388;-58
2022/11/27 05:21:16;;;;;;;72.73;25.97;;;;;;;3.07;100.00;102146.91;7389316;19;20430;-59
2022/11/27 05:23:46;;;;;;;47.67;19.87;;;;;;;3.02;100.00;102139.59;7392474;19;20395;-59
2022/11/27 05:26:15;;;;;;;50.23;20.27;;;;;;;2.93;100.00;102129.41;7390272;19;20415;-60
2022/11/27 05:28:44;;;;;;;53.70;19.20;;;;;;;2.95;100.00;102122.78;7392200;19;20400;-57
2022/11/27 05:31:14;;;;;;;56.80;20.77;;;;;;;2.93;100.00;102114.09;7389357;19;20792;-57
2022/11/27 05:33:43;;;;;;;54.13;20.50;;;;;;;2.89;100.00;102106.91;7390468;19;20848;-59
2022/11/27 05:36:15;;;;;;;42.90;18.60;;;;;;;2.84;100.00;102109.91;7383979;19;20399;-58
2022/11/27 05:38:45;;;;;;;52.00;22.00;;;;;;;2.70;100.00;102111.16;7392319;19;20384;-59
2022/11/27 05:41:14;;;;;;;61.47;20.60;;;;;;;2.78;100.00;102088.06;7388893;19;20434;-59
2022/11/27 05:43:44;;;;;;;57.53;23.20;;;;;;;2.72;100.00;102088.34;7394971;19;20943;-59
2022/11/27 05:46:16;;;;;;;59.77;21.43;;;;;;;2.73;100.00;102090.19;7389581;19;20784;-61
2022/11/27 05:48:46;;;;;;;54.50;19.97;;;;;;;2.68;100.00;102086.28;7391842;19;20870;-59
2022/11/27 05:51:18;;;;;;;67.87;20.03;;;;;;;2.73;100.00;102090.19;7389635;19;20956;-58
2022/11/27 05:53:48;;;;;;;62.77;21.30;;;;;;;2.67;100.00;102092.13;7389979;19;20391;-59
2022/11/27 05:56:18;;;;;;;52.17;20.97;;;;;;;2.60;100.00;102093.19;7389384;19;21243;-59
2022/11/27 05:58:50;;;;;;;63.03;22.70;;;;;;;2.56;100.00;102097.09;7391727;19;20374;-60
2022/11/27 06:01:20;;;;;;;65.63;24.20;;;;;;;2.61;100.00;102094.09;7388002;19;20940;-57
2022/11/27 06:03:50;;;;;;;57.97;20.03;;;;;;;2.55;100.00;102100.41;7391026;19;20366;-56
2022/11/27 06:06:22;;;;;;;62.13;21.23;;;;;;;2.54;100.00;102108.81;7388730;19;20421;-57
2022/11/27 06:08:51;;;;;;;55.30;22.20;;;;;;;2.47;100.00;102108.97;7390925;19;20392;-59
2022/11/27 06:11:22;;;;;;;69.03;21.90;;;;;;;2.46;100.00;102116.47;7387798;19;20415;-59
2022/11/27 06:13:52;;;;;;;59.33;21.73;;;;;;;2.43;100.00;102109.41;7389334;19;20396;-60
2022/11/27 06:16:23;;;;;;;58.10;22.57;;;;;;;2.38;100.00;102113.16;7388683;19;21244;-58
2022/11/27 06:18:54;;;;;;;53.60;22.33;;;;;;;2.45;100.00;102113.00;7395460;19;20938;-59
2022/11/27 06:21:26;;;;;;;48.40;23.10;;;;;;;2.37;100.00;102112.25;7395697;19;20438;-60
2022/11/27 06:23:57;;;;;;;47.03;20.70;;;;;;;2.34;100.00;102117.06;7398383;19;20399;-58
2022/11/27 06:26:28;;;;;;;62.33;22.37;;;;;;;2.35;100.00;102115.44;7395874;19;20441;-58
2022/11/27 06:28:59;;;;;;;65.43;24.30;;;;;;;2.38;100.00;102110.63;7398461;19;20387;-59
2022/11/27 06:31:31;;;;;;;53.03;19.47;;;;;;;3.09;100.00;102099.47;7395691;19;21187;-60
2022/11/27 06:34:01;;;;;;;84.30;34.63;;;;;;;4.67;100.00;102086.28;7395450;19;20758;-58
2022/11/27 06:36:35;;;;;;;127.07;54.60;;;;;;;5.58;100.00;102061.47;7394684;19;20425;-59
2022/11/27 06:39:06;;;;;;;76.10;33.77;;;;;;;5.60;100.00;102054.84;7398497;19;20414;-58
2022/11/27 06:41:36;;;;;;;91.53;40.27;;;;;;;5.57;100.00;102061.34;7394951;19;20411;-57
2022/11/27 06:44:06;;;;;;;56.33;27.57;;;;;;;5.40;100.00;102066.84;7398163;19;20968;-59
2022/11/27 06:46:35;;;;;;;59.77;27.60;;;;;;;5.63;100.00;102088.34;7395523;19;20419;-59
2022/11/27 06:49:05;;;;;;;48.10;24.97;;;;;;;6.11;100.00;102093.06;7397765;19;20794;-57
2022/11/27 06:51:37;;;;;;;39.23;20.00;;;;;;;6.16;100.00;102119.97;7391929;19;21080;-55
2022/11/27 06:54:06;;;;;;;32.93;17.43;;;;;;;6.34;100.00;102146.19;7395558;19;20420;-57
2022/11/27 06:56:36;;;;;;;30.63;16.63;;;;;;;6.04;100.00;102165.97;7395633;19;20422;-59
2022/11/27 06:59:05;;;;;;;31.33;14.60;;;;;;;5.75;100.00;102193.47;7397548;19;20917;-58
2022/11/27 07:01:35;;;;;;;31.73;15.30;;;;;;;4.89;100.00;102221.16;7394215;19;20421;-56
2022/11/27 07:04:04;;;;;;;28.80;14.33;;;;;;;4.18;100.00;102231.97;7396705;19;20389;-57
2022/11/27 07:06:36;;;;;;;29.23;14.60;;;;;;;4.16;100.00;102243.66;7394801;19;20960;-54
2022/11/27 07:09:06;;;;;;;32.10;14.53;;;;;;;4.21;100.00;102245.75;7397146;19;20384;-57
2022/11/27 07:11:36;;;;;;;31.13;14.77;;;;;;;3.40;100.00;102261.28;7395088;19;20429;-59
2022/11/27 07:14:06;;;;;;;27.43;14.10;;;;;;;3.28;100.00;102255.94;7395235;19;20408;-57
2022/11/27 07:16:37;;;;;;;33.83;15.33;;;;;;;3.92;100.00;102242.31;7394037;19;20437;-57
2022/11/27 07:19:09;;;;;;;31.93;14.97;;;;;;;3.23;100.00;102250.41;7396899;19;20387;-59
2022/11/27 07:21:41;;;;;;;30.10;13.80;;;;;;;3.08;100.00;102255.81;7393466;19;20415;-59
2022/11/27 07:24:11;;;;;;;30.60;14.27;;;;;;;2.82;100.00;102246.53;7397018;19;20392;-59
2022/11/27 07:26:40;;;;;;;34.87;15.20;;;;;;;2.65;100.00;102244.00;7394273;19;20433;-57
2022/11/27 07:29:10;;;;;;;36.10;16.47;;;;;;;2.60;100.00;102241.00;7395952;19;20720;-54
2022/11/27 07:31:39;;;;;;;32.90;15.37;;;;;;;2.60;100.00;102237.56;7392087;19;20436;-58
2022/11/27 07:34:08;;;;;;;27.73;13.97;;;;;;;2.65;100.00;102239.81;7394351;19;20459;-56
2022/11/27 07:36:51;;;;;;;38.33;16.70;;;;;;;2.66;100.00;102240.72;7392513;19;20503;-60
2022/11/27 07:39:20;;;;;;;31.87;15.93;;;;;;;2.51;100.00;102241.00;7396881;19;20395;-59
2022/11/27 07:42:10;;;;;;;37.33;16.27;;;;;;;2.50;100.00;102240.84;7392269;19;20415;-54
2022/11/27 07:44:59;;;;;;;37.77;15.87;;;;;;;2.32;100.00;102238.31;7396371;19;20938;-57
2022/11/27 07:47:30;;;;;;;39.47;16.33;;;;;;;2.22;100.00;102239.03;7396075;19;20465;-59
2022/11/27 07:50:00;;;;;;;33.07;15.67;;;;;;;2.32;100.00;102227.19;7396052;19;20406;-57
2022/11/27 07:52:32;;;;;;;35.57;16.57;;;;;;;2.44;100.00;102220.78;7391623;19;20442;-59
2022/11/27 07:55:10;;;;;;;41.63;17.10;;;;;;;2.42;100.00;102214.63;7395635;19;20406;-60
2022/11/27 07:57:39;;;;;;;36.17;16.23;;;;;;;2.41;100.00;102202.66;7393432;19;20407;-60
2022/11/27 08:00:10;;;;;;;37.43;17.50;;;;;;;2.28;100.00;102195.44;7395218;19;20384;-60
2022/11/27 08:02:39;;;;;;;55.30;18.00;;;;;;;2.29;100.00;102193.03;7390358;19;20427;-60
2022/11/27 08:05:10;;;;;;;52.07;17.57;;;;;;;2.31;100.00;102192.28;7395230;19;20418;-60
2022/11/27 08:07:44;;;;;;;44.67;16.27;;;;;;;2.24;100.00;102186.59;7392274;19;20960;-59
2022/11/27 08:10:13;;;;;;;39.10;15.13;;;;;;;2.21;100.00;102183.72;7395050;19;20379;-60
2022/11/27 08:12:43;;;;;;;35.60;15.57;;;;;;;2.29;100.00;102172.66;7390555;19;20804;-60
2022/11/27 08:15:12;;;;;;;38.57;17.10;;;;;;;2.38;100.00;102174.31;7392857;19;20403;-60
2022/11/27 08:17:42;;;;;;;30.93;15.30;;;;;;;2.31;100.00;102164.28;7392782;19;20959;-59
2022/11/27 08:20:12;;;;;;;37.00;17.17;;;;;;;2.37;100.00;102162.31;7394781;19;20399;-60
2022/11/27 08:22:44;;;;;;;34.57;15.40;;;;;;;2.27;100.00;102163.06;7390227;19;21086;-60
2022/11/27 08:25:14;;;;;;;38.87;15.43;;;;;;;2.36;100.00;102155.44;7396248;19;20375;-58
2022/11/27 08:27:43;;;;;;;32.27;15.03;;;;;;;2.53;100.00;102157.97;7391850;19;20418;-61
2022/11/27 08:30:13;;;;;;;31.70;14.20;;;;;;;2.56;100.00;102148.06;7394388;19;20395;-60
2022/11/27 08:32:46;;;;;;;32.63;14.47;;;;;;;2.54;100.00;102148.66;7391928;19;20506;-60
2022/11/27 08:35:15;;;;;;;35.97;15.70;;;;;;;2.49;100.00;102138.03;7392868;19;20789;-60
2022/11/27 08:37:47;;;;;;;35.83;14.53;;;;;;;2.57;100.00;102126.03;7390834;19;20422;-60
2022/11/27 08:40:17;;;;;;;38.33;14.47;;;;;;;2.61;100.00;102123.03;7394022;19;20402;-60
2022/11/27 08:42:46;;;;;;;37.63;15.10;;;;;;;2.60;100.00;102108.47;7386920;19;20986;-60
2022/11/27 08:45:16;;;;;;;40.67;14.73;;;;;;;2.68;100.00;102089.72;7393607;19;20409;-60
2022/11/27 08:47:45;;;;;;;36.67;14.03;;;;;;;2.65;100.00;102092.00;7391443;19;20408;-59
2022/11/27 08:50:15;;;;;;;36.50;14.70;;;;;;;2.70;100.00;102078.03;7393913;19;20387;-61
2022/11/27 08:52:44;;;;;;;33.00;13.50;;;;;;;2.71;100.00;102061.06;7389681;19;20765;-59
2022/11/27 08:55:16;;;;;;;30.83;13.40;;;;;;;2.77;100.00;102054.00;7391906;19;20392;-60
2022/11/27 08:57:46;;;;;;;34.73;14.90;;;;;;;2.74;100.00;102047.72;7391387;19;20415;-61
2022/11/27 09:00:16;;;;;;;32.73;13.40;;;;;;;2.74;100.00;102038.44;7393302;19;20399;-60
2022/11/27 09:02:46;;;;;;;29.73;13.03;;;;;;;2.77;100.00;102035.28;7389050;19;21266;-60
2022/11/27 09:05:15;;;;;;;30.53;13.00;;;;;;;2.53;100.00;102056.06;7393028;19;20410;-56
2022/11/27 09:07:45;;;;;;;29.53;12.93;;;;;;;2.48;100.00;102054.72;7390338;19;20406;-58
2022/11/27 09:10:17;;;;;;;29.47;12.20;;;;;;;2.60;100.00;102041.34;7387587;19;20985;-56
2022/11/27 09:12:47;;;;;;;34.03;11.67;;;;;;;2.72;100.00;102032.28;7389569;19;21410;-58
2022/11/27 09:15:19;;;;;;;23.40;11.33;;;;;;;2.93;100.00;102029.97;7394553;19;20419;-57
2022/11/27 09:17:49;;;;;;;26.37;11.67;;;;;;;2.88;100.00;102028.63;7391456;19;20411;-52
2022/11/27 09:20:19;;;;;;;31.30;11.93;;;;;;;2.96;100.00;102037.88;7395652;19;20753;-56
2022/11/27 09:22:48;;;;;;;21.60;11.87;;;;;;;3.02;100.00;102051.19;7389024;19;20422;-55
2022/11/27 09:25:20;;;;;;;21.03;10.40;;;;;;;3.07;100.00;102051.63;7392371;19;20387;-60
2022/11/27 09:27:50;;;;;;;24.53;11.43;;;;;;;2.87;100.00;102052.34;7391377;19;20431;-56
2022/11/27 09:30:20;;;;;;;27.23;11.97;;;;;;;2.97;100.00;102045.69;7393315;19;20803;-55
2022/11/27 09:32:49;;;;;;;24.53;11.47;;;;;;;3.00;100.00;102050.19;7388809;19;20454;-53
2022/11/27 09:35:19;;;;;;;25.37;11.60;;;;;;;3.01;100.00;102029.00;7391564;19;20384;-58
2022/11/27 09:37:48;;;;;;;25.20;12.30;;;;;;;3.07;100.00;102021.03;7389322;19;20415;-59
2022/11/27 09:40:21;;;;;;;23.10;11.63;;;;;;;3.05;100.00;102018.34;7392147;19;20983;-59
2022/11/27 09:42:53;;;;;;;34.90;11.20;;;;;;;2.91;100.00;102011.06;7387781;19;20430;-55
2022/11/27 09:45:25;;;;;;;30.27;12.00;;;;;;;3.01;100.00;102000.97;7394861;19;20403;-58
2022/11/27 09:47:58;;;;;;;28.07;12.07;;;;;;;3.08;100.00;101990.56;7389401;19;20435;-58
2022/11/27 09:50:29;;;;;;;27.77;11.87;;;;;;;3.20;100.00;101992.44;7392383;19;20499;-57
2022/11/27 09:53:02;;;;;;;30.80;13.67;;;;;;;3.30;100.00;101995.09;7386753;19;20423;-59
2022/11/27 09:55:40;;;;;;;31.60;12.50;;;;;;;3.44;100.00;101992.91;7390516;19;20395;-57
2022/11/27 09:58:16;;;;;;;28.30;12.40;;;;;;;3.46;100.00;101984.63;7389571;19;20437;-54
2022/11/27 10:00:46;;;;;;;24.90;11.50;;;;;;;3.51;100.00;101979.94;7392067;19;20410;-59
2022/11/27 10:03:17;;;;;;;28.47;12.00;;;;;;;3.54;100.00;101975.09;7388097;19;20449;-60
2022/11/27 10:05:53;;;;;;;26.60;12.73;;;;;;;3.51;100.00;101978.28;7390407;19;20367;-59
2022/11/27 10:08:28;;;;;;;26.50;11.33;;;;;;;3.40;100.00;101981.53;7391595;19;20442;-60
2022/11/27 10:11:09;;;;;;;25.60;10.63;;;;;;;3.38;100.00;101988.13;7387834;19;20398;-58
2022/11/27 10:13:58;;;;;;;19.70;10.40;;;;;;;3.46;100.00;102006.69;7389599;19;20430;-58
2022/11/27 10:16:33;;;;;;;24.97;12.77;;;;;;;3.47;100.00;102003.38;7388960;19;20407;-60
2022/11/27 10:19:09;;;;;;;24.50;11.57;;;;;;;3.48;100.00;102007.72;7391839;19;20410;-57
2022/11/27 10:21:44;;;;;;;21.10;11.23;;;;;;;3.35;100.00;102018.47;7387815;19;20415;-59
2022/11/27 10:24:20;;;;;;;26.10;10.20;;;;;;;3.32;100.00;102019.09;7395239;19;20403;-59
2022/11/27 10:26:55;;;;;;;22.90;10.13;;;;;;;3.49;100.00;102012.97;7388409;19;20797;-59
2022/11/27 10:29:35;;;;;;;26.23;11.40;;;;;;;3.66;100.00;102005.94;7390546;19;20793;-60
2022/11/27 10:32:10;;;;;;;31.10;13.67;;;;;;;3.62;100.00;102009.88;7387776;19;20454;-56
2022/11/27 10:35:03;;;;;;;28.63;11.40;;;;;;;3.48;100.00;102000.06;7390371;19;20383;-59
2022/11/27 10:37:37;;;;;;;23.60;10.50;;;;;;;3.61;100.00;102009.72;7387406;19;20411;-56
2022/11/27 10:40:13;;;;;;;23.57;11.47;;;;;;;3.73;100.00;102004.81;7390354;19;20399;-57
2022/11/27 10:42:51;;;;;;;23.90;10.50;;;;;;;3.73;100.00;101997.16;7386262;19;20435;-60
2022/11/27 10:45:23;;;;;;;27.73;11.80;;;;;;;3.70;100.00;102007.09;7389868;19;20379;-58
2022/11/27 10:47:53;;;;;;;19.23;9.47;;;;;;;3.60;100.00;102005.38;7388130;19;20415;-61
2022/11/27 10:50:22;;;;;;;21.20;9.87;;;;;;;3.67;100.00;102007.72;7390293;19;20399;-59
2022/11/27 10:52:55;;;;;;;21.13;9.90;;;;;;;3.72;100.00;102015.78;7385891;19;20438;-59
2022/11/27 10:55:32;;;;;;;23.17;11.27;;;;;;;3.85;100.00;102013.56;7389415;19;20392;-58
2022/11/27 10:58:10;;;;;;;27.17;12.00;;;;;;;3.84;100.00;102011.78;7387695;19;20403;-58
2022/11/27 11:00:39;;;;;;;23.50;9.77;;;;;;;3.86;100.00;102010.28;7389871;19;20392;-57
2022/11/27 11:03:18;;;;;;;21.63;10.93;;;;;;;3.83;100.00;102012.56;7385891;19;20857;-57
2022/11/27 11:05:58;;;;;;;26.07;11.63;;;;;;;3.81;100.00;102008.97;7394074;19;20406;-57
2022/11/27 11:08:47;;;;;;;22.23;10.13;;;;;;;3.87;100.00;102023.94;7396799;19;20419;-60
2022/11/27 11:11:27;;;;;;;23.77;11.27;;;;;;;3.86;100.00;102010.28;7393259;19;20423;-58
2022/11/27 11:13:59;;;;;;;18.10;9.33;;;;;;;3.85;100.00;102007.59;7397026;19;20745;-59
2022/11/27 11:16:30;;;;;;;31.70;13.40;;;;;;;4.01;100.00;101999.63;7392934;19;20407;-59
2022/11/27 11:19:07;;;;;;;22.33;10.07;;;;;;;4.07;100.00;101999.25;7397837;19;20819;-58
2022/11/27 11:21:40;;;;;;;23.23;9.80;;;;;;;4.17;100.00;101991.66;7392365;19;20927;-57
2022/11/27 11:24:15;;;;;;;23.83;11.20;;;;;;;4.24;100.00;101986.31;7396740;19;20392;-57
2022/11/27 11:26:47;;;;;;;23.07;11.53;;;;;;;4.20;100.00;101984.25;7393970;19;20783;-54
2022/11/27 11:29:28;;;;;;;22.13;10.90;;;;;;;4.28;100.00;101984.91;7396265;19;20411;-59
2022/11/27 11:32:00;;;;;;;19.27;10.07;;;;;;;4.16;100.00;101989.88;7392755;19;20807;-60